Terminal Aerodrome Forecast
Issued by NWS

Home | Current Version | Previous Version | Text Only | Print | Product List | Glossary On
Versions: 1 2 3 4 5 6 7 8 9 10 11 12 13 14 15 16 17
000
FTUS44 KBMX 132300
TAFTCL
TAF
KTCL 132320Z 1400/1424 00000KT P6SM SKC
     FM141000 00000KT 2SM BR SKC
     FM141300 23006KT P6SM SCT250
     FM141700 23007KT P6SM VCTS BKN050CB=

USA.gov is the U.S. government's official web portal to all federal, state and local government web resources and services.